Aden, IL

1:41 AM CST on March 01, 2015 (GMT -0600)
Garrison, il | Change Station
CLOSE
Current Station
Personal Weather Station
Location: Illinois, IL
Elevation: 427 ft
Nearby Weather Stations
Active Advisory: Winter Weather Advisory Active Notice: Record Report, Local Storm Report

Elev 427 ft 38.25 °N, 88.52 °W | Updated 13 minutes ago

Snow
Snow
28.8 °F
Feels Like 20 °F
N
9.9
Wind Variable Wind from SE

Today
High -- | Low -- °F
--% Chance of Precip.
Yesterday
High -- | Low -- °F
Precip. -- in
6:26 AM 5:47 PM
Waxing Gibbous, 83% visible
Pressure 30.40 in
Visibility 4.0 miles
Clouds Scattered Clouds 4100 ft
Mostly Cloudy 4600 ft
Overcast 6000 ft
Windchill 20 °F
Dew Point 27 °F
Humidity 93%
Rainfall 0.00 in
Snow Depth Not available.
UV 0 out of 12
Pollen .20 out of 12
Air Quality Not available.
Flu Activity Not available.
METAR KFWC 010715Z AUTO 17004KT 4SM -SN SCT041 BKN046 OVC060 M01/M02 A3040 RMK AO1 T10111020

More Conditions Fewer Conditions

Pressure 30.40 in
Visibility 4.0 miles
Clouds Scattered Clouds 4100 ft
Mostly Cloudy 4600 ft
Overcast 6000 ft
Windchill 20 °F
Dew Point 27 °F
Humidity 93%
Rainfall 0.00 in
Snow Depth Not available.
UV 0 out of 12
Pollen .20 out of 12
Air Quality Not available.
Flu Activity Not available.
METAR KFWC 010715Z AUTO 17004KT 4SM -SN SCT041 BKN046 OVC060 M01/M02 A3040 RMK AO1 T10111020

More Conditions Fewer Conditions

10-Day Weather Forecast

Almanac

Astronomy

Mar. 01, 2015 Rise Set
Actual Time
Civil Twilight
Nautical Twilight
Astronomical Twilight
Moon
Length of Visible Light
Length of Day
Tomorrow will be .
, % of the Moon is Illuminated

Today's Extremes

State Highs State Lows

Community

WunderPhotos

Upload Photos

1,801,347 photos uploaded!

WunderBlogs® & News

Nearby

Air Quality

  Air Quality AQ Index Pollutant
Not available.

Snow Depth

Station Depth Elevation

Earthquake Activity

City Distance Mag. Time & Date
Minimum magnitude displayed is 2.5.

Coastal Water Temperatures

Place Temperature

Nearby Weather Stations

Winter Weather Advisory
Statement as of 9:55 PM CST on February 28, 2015

... Winter Weather Advisory remains in effect until noon CST
Sunday...

A Winter Weather Advisory remains in effect until noon CST
Sunday.

* Timing... snow north of Route 13 and especially along the
Interstate 64 corridor should decrease. However overnight there
will continue to be a chance of either freezing rain or light
snow with more precipitation moving northeast from Missouri and
Arkansas.

* Accumulations... snow accumulations of 1 to 4 inches will occur
with ice accumulations generally at or below one tenth of an
inch. The higher snow amounts will be along and north of
Interstate 64.

* Impacts... hazardous travel conditions are anticipated.

Precautionary/preparedness actions...

A Winter Weather Advisory means that periods of snow... sleet... or
freezing rain will cause travel difficulties. Be prepared for
slippery roads and limited visibilities... and use caution while
driving.